Time;durP1;ratioP1;P1;durP2;ratioP2;P2;SDS_P1;SDS_P2;PMS_P1;PMS_P2;Temp;Humidity;BMP_temperature;BMP_pressure;BME280_temperature;BME280_humidity;BME280_pressure;Samples;Min_cycle;Max_cycle;Signal;HPM_P1;HPM_P2
2021/08/08 00:01:22;;;;;;;0.40;0.40;;;14.40;99.90;;;;;;4996397;28;20469;-83
2021/08/08 00:03:48;;;;;;;0.30;0.30;;;14.40;99.90;;;;;;4996229;28;20492;-83
2021/08/08 00:06:16;;;;;;;0.30;0.30;;;14.40;99.90;;;;;;4996429;28;20448;-83
2021/08/08 00:08:43;;;;;;;0.40;0.37;;;14.30;99.90;;;;;;4996420;28;20463;-83
2021/08/08 00:11:10;;;;;;;0.40;0.30;;;14.30;99.90;;;;;;4996131;28;20468;-83
2021/08/08 00:13:37;;;;;;;0.50;0.30;;;14.30;99.90;;;;;;4996187;28;20892;-83
2021/08/08 00:16:05;;;;;;;0.93;0.33;;;14.30;99.90;;;;;;4996116;28;20518;-83
2021/08/08 00:18:32;;;;;;;0.50;0.40;;;14.30;99.90;;;;;;4995657;28;20429;-83
2021/08/08 00:20:59;;;;;;;0.40;0.30;;;14.30;99.90;;;;;;4996198;28;20464;-83
2021/08/08 00:23:27;;;;;;;0.30;0.30;;;14.20;99.90;;;;;;4995963;28;20495;-83
2021/08/08 00:25:53;;;;;;;0.57;0.30;;;14.20;99.90;;;;;;4996543;28;20452;-83
2021/08/08 00:28:20;;;;;;;0.40;0.40;;;14.20;99.90;;;;;;4995951;28;20548;-83
2021/08/08 00:30:47;;;;;;;0.40;0.40;;;14.20;99.90;;;;;;4995429;28;20819;-83
2021/08/08 00:33:14;;;;;;;0.30;0.30;;;14.20;99.90;;;;;;4995489;28;20437;-84
2021/08/08 00:35:42;;;;;;;0.30;0.30;;;14.20;99.90;;;;;;4995496;28;20434;-83
2021/08/08 00:38:09;;;;;;;0.40;0.30;;;14.20;99.90;;;;;;4995675;28;20503;-84
2021/08/08 00:40:39;;;;;;;0.40;0.30;;;14.10;99.90;;;;;;4995657;28;20455;-83
2021/08/08 00:43:09;;;;;;;0.30;0.30;;;14.20;99.90;;;;;;4995128;28;20476;-83
2021/08/08 00:45:36;;;;;;;0.40;0.40;;;14.20;99.90;;;;;;4995411;28;20440;-83
2021/08/08 00:48:02;;;;;;;0.30;0.30;;;14.20;99.90;;;;;;4995191;28;20459;-83
2021/08/08 00:50:29;;;;;;;0.30;0.30;;;14.20;99.90;;;;;;4995410;28;20459;-83
2021/08/08 00:52:56;;;;;;;0.40;0.30;;;14.10;99.90;;;;;;4994980;28;20440;-83
2021/08/08 00:55:23;;;;;;;0.30;0.30;;;14.20;99.90;;;;;;4994891;28;20441;-83
2021/08/08 00:57:51;;;;;;;0.30;0.30;;;14.10;99.90;;;;;;4994620;28;20507;-84
2021/08/08 01:00:18;;;;;;;0.30;0.30;;;14.10;99.90;;;;;;4994936;28;20444;-83
2021/08/08 01:02:49;;;;;;;0.30;0.30;;;14.10;99.90;;;;;;4994963;28;20518;-83
2021/08/08 01:05:21;;;;;;;0.40;0.30;;;14.10;99.90;;;;;;4994483;28;20916;-83
2021/08/08 01:07:51;;;;;;;0.60;0.30;;;14.10;99.90;;;;;;4994600;28;20428;-83
2021/08/08 01:10:19;;;;;;;0.30;0.30;;;14.10;99.90;;;;;;4994982;28;20440;-83
2021/08/08 01:12:47;;;;;;;0.80;0.30;;;14.10;99.90;;;;;;4994810;28;20449;-83
2021/08/08 01:15:16;;;;;;;0.70;0.30;;;14.10;99.90;;;;;;4994847;28;20448;-83
2021/08/08 01:17:45;;;;;;;0.40;0.30;;;14.00;99.90;;;;;;4994910;28;20441;-83
2021/08/08 01:20:13;;;;;;;0.40;0.30;;;14.00;99.90;;;;;;4994607;28;20436;-83
2021/08/08 01:22:45;;;;;;;0.30;0.30;;;14.10;99.90;;;;;;4994567;28;20492;-83
2021/08/08 01:25:14;;;;;;;0.30;0.30;;;14.10;99.90;;;;;;4994664;28;20931;-83
2021/08/08 01:27:41;;;;;;;0.30;0.30;;;14.10;99.90;;;;;;4994656;28;20457;-83
2021/08/08 01:30:09;;;;;;;0.87;0.87;;;14.10;99.90;;;;;;4994056;28;20456;-83
2021/08/08 01:32:36;;;;;;;0.40;0.40;;;14.10;99.90;;;;;;4994738;28;20460;-84
2021/08/08 01:35:05;;;;;;;0.40;0.30;;;14.20;99.90;;;;;;4994477;28;20440;-83
2021/08/08 01:37:32;;;;;;;0.80;0.50;;;14.20;99.90;;;;;;4994684;28;20460;-83
2021/08/08 01:40:03;;;;;;;0.30;0.20;;;14.20;99.90;;;;;;4994758;28;20456;-83
2021/08/08 01:42:32;;;;;;;0.50;0.37;;;14.20;99.90;;;;;;4994727;28;20483;-83
2021/08/08 01:45:02;;;;;;;0.40;0.30;;;14.20;99.90;;;;;;4994606;28;20452;-82
2021/08/08 01:47:35;;;;;;;0.37;0.37;;;14.20;99.90;;;;;;4994455;28;20436;-83
2021/08/08 01:50:03;;;;;;;0.30;0.20;;;14.20;99.90;;;;;;4994721;28;20424;-83
2021/08/08 01:52:29;;;;;;;0.30;0.30;;;14.20;99.90;;;;;;4994219;28;20468;-82
2021/08/08 01:54:57;;;;;;;0.30;0.30;;;14.10;99.90;;;;;;4994466;28;20945;-83
2021/08/08 01:57:24;;;;;;;0.30;0.30;;;14.10;99.90;;;;;;4994158;28;20511;-83
2021/08/08 01:59:53;;;;;;;0.30;0.30;;;14.10;99.90;;;;;;4994300;28;20464;-83
2021/08/08 02:02:19;;;;;;;0.70;0.40;;;14.10;99.90;;;;;;4994322;28;20468;-83
2021/08/08 02:04:47;;;;;;;0.40;0.30;;;14.00;99.90;;;;;;4994461;28;20455;-83
2021/08/08 02:07:15;;;;;;;0.30;0.30;;;14.00;99.90;;;;;;4994618;28;20452;-83
2021/08/08 02:09:42;;;;;;;0.70;0.53;;;14.00;99.90;;;;;;4994019;28;20441;-83
2021/08/08 02:12:10;;;;;;;0.30;0.30;;;13.90;99.90;;;;;;4994107;28;20472;-83
2021/08/08 02:14:37;;;;;;;0.37;0.33;;;13.90;99.90;;;;;;4994315;28;20459;-83
2021/08/08 02:17:07;;;;;;;0.30;0.30;;;13.90;99.90;;;;;;4994284;28;20436;-83
2021/08/08 02:19:33;;;;;;;0.30;0.30;;;13.90;99.90;;;;;;4994245;28;20456;-83
2021/08/08 02:22:01;;;;;;;0.30;0.30;;;13.90;99.90;;;;;;4993832;28;20468;-83
2021/08/08 02:24:29;;;;;;;0.30;0.30;;;13.90;99.90;;;;;;4994146;28;20483;-83
2021/08/08 02:26:56;;;;;;;0.73;0.30;;;13.90;99.90;;;;;;4994532;28;20441;-83
2021/08/08 02:29:23;;;;;;;0.30;0.30;;;13.90;99.90;;;;;;4993874;28;20484;-83
2021/08/08 02:31:50;;;;;;;0.50;0.30;;;14.00;99.90;;;;;;4994176;28;20471;-83
2021/08/08 02:34:18;;;;;;;0.30;0.30;;;13.90;99.90;;;;;;4994182;28;20453;-83
2021/08/08 02:36:44;;;;;;;0.60;0.30;;;14.00;99.90;;;;;;4993964;28;20967;-83
2021/08/08 02:39:11;;;;;;;0.60;0.30;;;14.00;99.90;;;;;;4993720;28;20444;-83
2021/08/08 02:41:38;;;;;;;0.30;0.30;;;14.00;99.90;;;;;;4995388;28;20464;-83
2021/08/08 02:44:05;;;;;;;0.40;0.30;;;14.00;99.90;;;;;;4997740;28;20483;-83
2021/08/08 02:46:32;;;;;;;0.30;0.30;;;14.00;99.90;;;;;;4997328;28;20443;-83
2021/08/08 02:48:59;;;;;;;0.40;0.40;;;14.00;99.90;;;;;;4997853;28;20805;-83
2021/08/08 02:51:27;;;;;;;0.40;0.40;;;13.90;99.90;;;;;;4997302;28;20475;-83
2021/08/08 02:53:54;;;;;;;0.30;0.30;;;13.90;99.90;;;;;;4997237;28;20444;-83
2021/08/08 02:56:21;;;;;;;0.60;0.30;;;13.90;99.90;;;;;;4996916;28;20885;-83
2021/08/08 02:58:48;;;;;;;0.30;0.30;;;13.90;99.90;;;;;;4997320;28;20452;-84
2021/08/08 03:01:15;;;;;;;2.40;0.40;;;13.90;99.90;;;;;;4996967;28;20461;-83
2021/08/08 03:03:41;;;;;;;0.40;0.30;;;13.80;99.90;;;;;;4997132;28;20488;-83
2021/08/08 03:06:12;;;;;;;0.30;0.30;;;13.80;99.90;;;;;;4997176;28;20452;-83
2021/08/08 03:08:44;;;;;;;0.73;0.30;;;13.90;99.90;;;;;;4997240;28;20448;-83
2021/08/08 03:11:11;;;;;;;0.43;0.40;;;13.90;99.90;;;;;;4997122;28;20535;-83
2021/08/08 03:13:39;;;;;;;0.60;0.40;;;13.90;99.90;;;;;;4997161;28;20444;-83
2021/08/08 03:16:06;;;;;;;0.57;0.57;;;13.90;99.90;;;;;;4996771;28;20499;-83
2021/08/08 03:18:34;;;;;;;0.40;0.40;;;13.90;99.90;;;;;;4996765;28;20435;-83
2021/08/08 03:21:01;;;;;;;0.30;0.30;;;13.90;99.90;;;;;;4997020;28;20464;-83
2021/08/08 03:23:28;;;;;;;0.30;0.30;;;13.90;99.90;;;;;;4996470;28;20563;-83
2021/08/08 03:25:56;;;;;;;0.30;0.30;;;13.90;99.90;;;;;;4996593;28;20965;-84
2021/08/08 03:28:23;;;;;;;0.40;0.27;;;13.90;99.90;;;;;;4996550;28;20433;-83
2021/08/08 03:30:49;;;;;;;0.40;0.30;;;13.80;99.90;;;;;;4996830;28;20499;-83
2021/08/08 03:33:16;;;;;;;0.30;0.30;;;13.80;99.90;;;;;;4996519;28;20444;-83
2021/08/08 03:35:43;;;;;;;0.60;0.60;;;13.80;99.90;;;;;;4996708;28;20456;-84
2021/08/08 03:38:10;;;;;;;0.30;0.20;;;13.80;99.90;;;;;;4996745;28;20456;-83
2021/08/08 03:40:37;;;;;;;0.70;0.40;;;13.80;99.90;;;;;;4996680;28;20448;-83
2021/08/08 03:43:05;;;;;;;0.30;0.30;;;13.70;99.90;;;;;;4996285;28;20484;-83
2021/08/08 03:45:32;;;;;;;0.30;0.20;;;13.70;99.90;;;;;;4996688;28;20445;-83
2021/08/08 03:47:59;;;;;;;0.30;0.30;;;13.70;99.90;;;;;;4996272;28;20464;-83
2021/08/08 03:50:26;;;;;;;0.40;0.30;;;13.70;99.90;;;;;;4996448;28;20456;-83
2021/08/08 03:52:53;;;;;;;0.30;0.30;;;13.70;99.90;;;;;;4995845;28;20467;-83
2021/08/08 03:55:20;;;;;;;0.30;0.30;;;13.70;99.90;;;;;;4996368;28;20455;-83
2021/08/08 03:57:47;;;;;;;0.33;0.30;;;13.70;99.90;;;;;;4995861;28;20480;-83
2021/08/08 04:00:15;;;;;;;0.40;0.40;;;13.70;99.90;;;;;;4996258;28;20435;-83
2021/08/08 04:02:42;;;;;;;0.40;0.40;;;13.70;99.90;;;;;;4996248;28;20469;-83
2021/08/08 04:05:10;;;;;;;0.40;0.30;;;13.70;99.90;;;;;;4996051;28;20492;-83
2021/08/08 04:07:36;;;;;;;0.30;0.30;;;13.60;99.90;;;;;;4996032;28;20479;-83
2021/08/08 04:10:04;;;;;;;0.40;0.20;;;13.60;99.90;;;;;;4995978;28;20433;-83
2021/08/08 04:12:31;;;;;;;0.60;0.40;;;13.60;99.90;;;;;;4995997;28;20479;-84
2021/08/08 04:14:57;;;;;;;0.30;0.20;;;13.60;99.90;;;;;;4995643;28;20448;-83
2021/08/08 04:17:25;;;;;;;0.67;0.30;;;13.60;99.90;;;;;;4995797;28;20451;-83
2021/08/08 04:19:52;;;;;;;0.60;0.47;;;13.60;99.90;;;;;;4995600;28;20468;-83
2021/08/08 04:22:19;;;;;;;0.30;0.30;;;13.50;99.90;;;;;;4995649;28;20476;-82
2021/08/08 04:24:46;;;;;;;0.40;0.30;;;13.60;99.90;;;;;;4995610;28;20511;-83
2021/08/08 04:27:13;;;;;;;0.30;0.30;;;13.60;99.90;;;;;;4995702;28;20473;-83
2021/08/08 04:29:40;;;;;;;0.30;0.30;;;13.50;99.90;;;;;;4995616;28;20461;-83
2021/08/08 04:32:07;;;;;;;1.20;0.40;;;13.60;99.90;;;;;;4995379;28;20473;-83
2021/08/08 04:34:35;;;;;;;0.30;0.30;;;13.60;99.90;;;;;;4995156;28;20445;-82
2021/08/08 04:37:03;;;;;;;0.40;0.27;;;13.60;99.90;;;;;;4995197;28;20456;-83
2021/08/08 04:39:30;;;;;;;0.33;0.27;;;13.60;99.90;;;;;;4995048;28;20448;-82
2021/08/08 04:41:57;;;;;;;0.30;0.30;;;13.60;99.90;;;;;;4995306;28;20495;-83
2021/08/08 04:44:24;;;;;;;0.30;0.30;;;13.60;99.90;;;;;;4995135;28;20480;-83
2021/08/08 04:46:50;;;;;;;0.30;0.30;;;13.60;99.90;;;;;;4995255;28;20448;-82
2021/08/08 04:49:17;;;;;;;0.30;0.30;;;13.70;99.90;;;;;;4994805;28;20443;-82
2021/08/08 04:51:45;;;;;;;0.40;0.30;;;13.70;99.90;;;;;;4994836;28;20459;-83
2021/08/08 04:54:12;;;;;;;0.30;0.30;;;13.70;99.90;;;;;;4995028;28;20444;-82
2021/08/08 04:56:39;;;;;;;0.57;0.30;;;13.70;99.90;;;;;;4994705;28;20464;-83
2021/08/08 04:59:05;;;;;;;0.33;0.33;;;13.70;99.90;;;;;;4994702;28;20437;-83
2021/08/08 05:01:32;;;;;;;0.30;0.30;;;13.70;99.90;;;;;;4994863;28;20475;-83
2021/08/08 05:03:59;;;;;;;0.37;0.27;;;13.70;99.90;;;;;;4993979;28;20476;-82
2021/08/08 05:06:26;;;;;;;0.97;0.40;;;13.70;99.90;;;;;;4994802;28;21016;-83
2021/08/08 05:08:54;;;;;;;0.30;0.30;;;13.70;99.90;;;;;;4994485;28;20788;-83
2021/08/08 05:11:20;;;;;;;0.30;0.30;;;13.70;99.90;;;;;;4994659;28;20984;-83
2021/08/08 05:13:47;;;;;;;0.60;0.30;;;13.70;99.90;;;;;;4994634;28;20444;-82
2021/08/08 05:16:14;;;;;;;0.73;0.30;;;13.80;99.90;;;;;;4994414;28;21007;-83
2021/08/08 05:18:41;;;;;;;0.30;0.30;;;13.80;99.90;;;;;;4994693;28;20437;-83
2021/08/08 05:21:08;;;;;;;0.37;0.33;;;13.80;99.90;;;;;;4994534;28;20453;-83
2021/08/08 05:23:35;;;;;;;0.40;0.30;;;13.90;99.90;;;;;;4994353;28;20476;-83
2021/08/08 05:26:03;;;;;;;0.30;0.30;;;13.90;99.90;;;;;;4994371;28;20940;-83
2021/08/08 05:28:30;;;;;;;0.40;0.30;;;13.90;99.90;;;;;;4994384;28;20971;-83
2021/08/08 05:30:57;;;;;;;0.57;0.30;;;13.90;99.90;;;;;;4994521;28;20472;-83
2021/08/08 05:33:24;;;;;;;0.30;0.20;;;13.90;99.90;;;;;;4994336;28;20948;-83
2021/08/08 05:35:52;;;;;;;0.30;0.30;;;14.00;99.90;;;;;;4994881;28;20814;-83
2021/08/08 05:38:19;;;;;;;0.30;0.30;;;14.00;99.90;;;;;;4994641;28;20791;-83
2021/08/08 05:40:46;;;;;;;0.30;0.30;;;14.00;99.90;;;;;;4994132;28;20456;-83
2021/08/08 05:43:14;;;;;;;0.30;0.30;;;14.10;99.90;;;;;;4994867;28;20817;-83
2021/08/08 05:45:42;;;;;;;0.40;0.30;;;14.10;99.90;;;;;;4994464;28;20492;-83
2021/08/08 05:48:08;;;;;;;0.30;0.30;;;14.10;99.90;;;;;;4994377;28;20448;-83
2021/08/08 05:50:35;;;;;;;0.40;0.40;;;14.20;99.90;;;;;;4994288;28;20505;-83
2021/08/08 05:53:02;;;;;;;0.30;0.30;;;14.30;99.90;;;;;;4994131;28;20527;-83
2021/08/08 05:55:29;;;;;;;0.50;0.30;;;14.30;99.90;;;;;;4994367;28;20499;-83
2021/08/08 05:57:56;;;;;;;0.40;0.30;;;14.30;99.90;;;;;;4993785;28;20488;-83
2021/08/08 06:00:24;;;;;;;0.30;0.30;;;14.40;99.90;;;;;;4994234;28;20432;-83
2021/08/08 06:02:51;;;;;;;0.40;0.40;;;14.50;99.90;;;;;;4994207;28;20461;-83
2021/08/08 06:05:18;;;;;;;0.30;0.30;;;14.60;99.90;;;;;;4993875;28;20517;-83
2021/08/08 06:07:44;;;;;;;0.30;0.30;;;14.60;99.90;;;;;;4993946;28;20465;-83
2021/08/08 06:10:12;;;;;;;0.73;0.40;;;14.80;99.90;;;;;;4994418;28;20456;-83
2021/08/08 06:12:38;;;;;;;0.60;0.40;;;14.80;99.90;;;;;;4993856;28;20456;-83
2021/08/08 06:15:06;;;;;;;0.30;0.30;;;15.00;99.90;;;;;;4994728;28;20448;-83
2021/08/08 06:17:34;;;;;;;0.30;0.20;;;15.10;99.90;;;;;;4998119;28;20451;-83
2021/08/08 06:20:01;;;;;;;0.40;0.40;;;15.20;99.90;;;;;;4998127;28;20448;-84
2021/08/08 06:22:28;;;;;;;0.40;0.30;;;15.30;99.90;;;;;;4997601;28;21063;-83
2021/08/08 06:24:54;;;;;;;0.30;0.30;;;15.50;99.90;;;;;;4997917;28;20480;-83
2021/08/08 06:27:21;;;;;;;0.30;0.20;;;15.70;99.90;;;;;;4998260;28;20464;-83
2021/08/08 06:29:48;;;;;;;0.30;0.30;;;15.90;99.90;;;;;;4997940;28;20434;-83
2021/08/08 06:32:15;;;;;;;0.33;0.30;;;16.10;99.90;;;;;;4998685;28;20818;-83
2021/08/08 06:34:43;;;;;;;0.40;0.30;;;16.30;99.90;;;;;;4998134;28;20455;-83
2021/08/08 06:37:10;;;;;;;0.73;0.30;;;16.40;99.90;;;;;;4997899;28;20432;-83
2021/08/08 06:39:37;;;;;;;1.00;0.50;;;16.60;99.90;;;;;;4998164;28;20463;-83
2021/08/08 06:42:04;;;;;;;0.30;0.30;;;16.60;99.90;;;;;;4998024;28;20814;-83
2021/08/08 06:44:31;;;;;;;0.50;0.40;;;16.70;99.90;;;;;;4997940;28;20467;-83
2021/08/08 06:46:58;;;;;;;0.30;0.30;;;16.80;99.90;;;;;;4997978;28;20448;-83
2021/08/08 06:49:24;;;;;;;0.30;0.30;;;16.80;99.90;;;;;;4998003;28;20456;-84
2021/08/08 06:51:52;;;;;;;0.30;0.30;;;16.90;99.90;;;;;;4997950;28;20479;-84
2021/08/08 06:54:19;;;;;;;0.30;0.30;;;16.90;99.90;;;;;;4998451;28;20429;-83
2021/08/08 06:56:46;;;;;;;3.23;0.40;;;17.00;99.90;;;;;;4997635;28;20484;-84
2021/08/08 06:59:13;;;;;;;0.40;0.40;;;17.10;99.90;;;;;;4997856;28;20805;-84
2021/08/08 07:01:39;;;;;;;0.30;0.30;;;17.10;99.90;;;;;;4997688;28;20479;-84
2021/08/08 07:04:06;;;;;;;0.40;0.30;;;17.20;99.90;;;;;;4997701;28;20482;-84
2021/08/08 07:06:33;;;;;;;0.40;0.40;;;17.30;99.90;;;;;;4997798;28;20430;-84
2021/08/08 07:09:02;;;;;;;0.30;0.30;;;17.40;99.90;;;;;;4997649;28;20477;-84
2021/08/08 07:11:29;;;;;;;0.57;0.30;;;17.60;99.90;;;;;;4997594;28;20479;-84
2021/08/08 07:13:56;;;;;;;0.97;0.30;;;17.60;99.90;;;;;;4997689;28;20479;-84
2021/08/08 07:16:22;;;;;;;0.40;0.30;;;17.70;99.90;;;;;;4997736;28;20444;-85
2021/08/08 07:18:50;;;;;;;0.30;0.30;;;17.60;99.90;;;;;;4997662;28;20448;-86
2021/08/08 07:21:16;;;;;;;0.40;0.30;;;17.60;99.90;;;;;;4997455;28;20477;-84
2021/08/08 07:23:43;;;;;;;0.77;0.30;;;17.70;99.90;;;;;;4997511;28;20818;-84
2021/08/08 07:26:11;;;;;;;0.40;0.40;;;17.80;99.90;;;;;;4997097;28;20476;-84
2021/08/08 07:28:38;;;;;;;0.40;0.30;;;17.70;99.90;;;;;;4996513;28;20440;-84
2021/08/08 07:31:05;;;;;;;0.50;0.50;;;17.60;99.90;;;;;;4997258;28;20483;-85
2021/08/08 07:33:32;;;;;;;0.33;0.30;;;17.60;99.90;;;;;;4997322;28;20448;-85
2021/08/08 07:35:58;;;;;;;0.40;0.40;;;17.50;99.90;;;;;;4997014;28;20962;-86
2021/08/08 07:38:25;;;;;;;0.40;0.40;;;17.40;99.90;;;;;;4997365;28;20959;-85
2021/08/08 07:40:52;;;;;;;0.40;0.30;;;17.40;99.90;;;;;;4997140;28;20472;-85
2021/08/08 07:43:20;;;;;;;0.40;0.30;;;17.40;99.90;;;;;;4997260;28;20459;-84
2021/08/08 07:45:47;;;;;;;0.40;0.40;;;17.60;99.90;;;;;;4997053;28;20479;-85
2021/08/08 07:48:13;;;;;;;0.50;0.40;;;17.60;99.90;;;;;;4997243;28;20459;-85
2021/08/08 07:50:40;;;;;;;0.50;0.50;;;17.60;99.90;;;;;;4996860;28;20460;-84
2021/08/08 07:53:07;;;;;;;0.37;0.37;;;17.70;99.90;;;;;;4996634;28;20948;-84
2021/08/08 07:55:34;;;;;;;0.40;0.30;;;17.90;99.90;;;;;;4996767;28;20441;-84
2021/08/08 07:58:01;;;;;;;1.67;0.47;;;18.00;99.90;;;;;;4996359;28;20832;-85
2021/08/08 08:00:29;;;;;;;0.40;0.30;;;18.30;99.90;;;;;;4996392;28;20528;-84
2021/08/08 08:02:56;;;;;;;0.30;0.20;;;18.50;99.90;;;;;;4996601;28;20451;-84
2021/08/08 08:05:23;;;;;;;0.40;0.30;;;18.60;99.90;;;;;;4996447;28;20463;-85
2021/08/08 08:07:49;;;;;;;0.40;0.30;;;18.70;99.90;;;;;;4996315;28;20436;-85
2021/08/08 08:10:16;;;;;;;1.13;0.40;;;18.70;99.90;;;;;;4996351;28;20429;-85
2021/08/08 08:12:43;;;;;;;1.77;0.50;;;18.60;99.90;;;;;;4996519;28;20453;-85
2021/08/08 08:15:11;;;;;;;0.57;0.50;;;18.60;99.90;;;;;;4996435;28;20444;-85
2021/08/08 08:17:39;;;;;;;0.40;0.30;;;18.70;99.90;;;;;;4996181;28;20456;-85
2021/08/08 08:20:06;;;;;;;1.70;0.80;;;18.80;99.90;;;;;;4995743;28;20432;-85
2021/08/08 08:22:33;;;;;;;0.40;0.30;;;19.10;99.90;;;;;;4995666;28;20468;-81
2021/08/08 08:24:59;;;;;;;0.50;0.40;;;19.20;99.90;;;;;;4996161;28;20487;-85
2021/08/08 08:27:26;;;;;;;0.50;0.50;;;19.10;99.90;;;;;;4996374;28;20448;-85
2021/08/08 08:29:53;;;;;;;0.40;0.30;;;19.00;99.90;;;;;;4995877;28;20974;-85
2021/08/08 08:32:19;;;;;;;0.83;0.40;;;18.80;99.90;;;;;;4996071;28;20472;-84
2021/08/08 08:34:48;;;;;;;4.73;0.70;;;18.50;99.90;;;;;;4996771;28;20449;-81
2021/08/08 08:37:14;;;;;;;0.47;0.47;;;18.30;99.90;;;;;;4996123;28;20448;-84
2021/08/08 08:39:41;;;;;;;0.40;0.40;;;18.20;99.90;;;;;;4996014;28;20805;-85
2021/08/08 08:42:10;;;;;;;0.40;0.30;;;17.90;99.90;;;;;;4996025;28;20471;-85
2021/08/08 08:44:37;;;;;;;0.43;0.30;;;17.80;99.90;;;;;;4996026;28;20491;-85
2021/08/08 08:47:06;;;;;;;0.43;0.40;;;17.60;99.90;;;;;;4996048;28;20444;-85
2021/08/08 08:49:35;;;;;;;0.40;0.30;;;17.60;99.90;;;;;;4995664;28;20453;-85
2021/08/08 08:52:06;;;;;;;0.30;0.30;;;17.60;99.90;;;;;;4995699;28;20453;-81
2021/08/08 08:54:34;;;;;;;0.70;0.50;;;17.60;99.90;;;;;;4995108;28;20452;-85
2021/08/08 08:57:01;;;;;;;0.97;0.40;;;17.70;99.90;;;;;;4995740;28;20491;-84
2021/08/08 08:59:29;;;;;;;0.57;0.57;;;17.80;99.90;;;;;;4995555;28;20447;-84
2021/08/08 09:01:55;;;;;;;0.50;0.33;;;17.80;99.90;;;;;;4995595;28;20483;-84
2021/08/08 09:04:22;;;;;;;0.47;0.40;;;17.90;99.90;;;;;;4995234;28;20432;-84
2021/08/08 09:06:49;;;;;;;0.40;0.40;;;18.10;99.90;;;;;;4995402;28;20420;-85
2021/08/08 09:09:17;;;;;;;0.40;0.40;;;18.50;99.90;;;;;;4995434;28;20491;-85
2021/08/08 09:11:47;;;;;;;0.40;0.40;;;18.80;99.90;;;;;;4995396;28;20469;-85
2021/08/08 09:14:15;;;;;;;0.40;0.33;;;19.20;99.90;;;;;;4995484;28;20916;-84
2021/08/08 09:16:45;;;;;;;0.60;0.40;;;19.30;99.90;;;;;;4995357;28;20440;-85
2021/08/08 09:19:18;;;;;;;0.60;0.30;;;19.50;99.90;;;;;;4995026;28;20463;-85
2021/08/08 09:21:45;;;;;;;1.57;0.50;;;19.70;99.90;;;;;;4995128;28;20798;-84
2021/08/08 09:24:25;;;;;;;0.50;0.37;;;19.80;99.90;;;;;;4995212;28;20448;-85
2021/08/08 09:27:01;;;;;;;0.40;0.30;;;20.00;99.90;;;;;;4995045;28;20871;-84
2021/08/08 09:29:28;;;;;;;0.50;0.50;;;20.10;99.90;;;;;;4995284;28;20796;-84
2021/08/08 09:31:56;;;;;;;0.50;0.50;;;20.10;99.90;;;;;;4994829;28;20463;-84
2021/08/08 09:34:25;;;;;;;0.40;0.40;;;20.20;99.90;;;;;;4994702;28;20927;-85
2021/08/08 09:36:53;;;;;;;0.40;0.40;;;20.30;99.90;;;;;;4995039;28;20444;-84
2021/08/08 09:39:35;;;;;;;0.40;0.40;;;20.30;99.90;;;;;;4995000;28;20447;-84
2021/08/08 09:42:11;;;;;;;0.37;0.33;;;20.40;99.90;;;;;;4994844;28;20999;-85
2021/08/08 09:44:38;;;;;;;1.70;0.50;;;20.60;99.90;;;;;;4994992;28;20458;-85
2021/08/08 09:47:06;;;;;;;0.40;0.40;;;20.70;99.90;;;;;;4994842;28;20439;-85
2021/08/08 09:49:32;;;;;;;2.63;0.40;;;20.80;99.90;;;;;;4994754;28;20440;-84
2021/08/08 09:51:59;;;;;;;0.60;0.47;;;20.90;99.90;;;;;;4994521;28;20964;-85
2021/08/08 09:54:37;;;;;;;1.60;0.50;;;21.00;99.90;;;;;;4994863;28;20460;-85
2021/08/08 09:57:04;;;;;;;0.50;0.50;;;21.20;99.90;;;;;;4994459;28;20549;-85
2021/08/08 09:59:31;;;;;;;0.60;0.50;;;21.20;99.90;;;;;;4994902;28;20451;-85
2021/08/08 10:01:58;;;;;;;0.40;0.40;;;21.20;99.90;;;;;;4994632;28;20456;-86
2021/08/08 10:04:25;;;;;;;0.40;0.40;;;21.20;99.90;;;;;;4995063;28;20462;-86
2021/08/08 10:06:53;;;;;;;0.60;0.40;;;21.20;99.90;;;;;;4994880;28;20479;-86
2021/08/08 10:09:20;;;;;;;0.70;0.40;;;21.30;99.90;;;;;;4994715;28;20440;-85
2021/08/08 10:11:51;;;;;;;0.50;0.40;;;21.40;99.90;;;;;;4994845;28;20456;-85
2021/08/08 10:14:19;;;;;;;5.10;0.50;;;21.60;99.90;;;;;;4995496;28;20467;-85
2021/08/08 10:16:47;;;;;;;2.03;0.60;;;21.70;99.90;;;;;;4994767;28;20459;-91
2021/08/08 10:19:16;;;;;;;0.40;0.30;;;22.00;99.90;;;;;;4994765;28;21006;-83
2021/08/08 10:21:46;;;;;;;0.40;0.40;;;22.00;99.90;;;;;;4994509;28;20468;-84
2021/08/08 10:24:14;;;;;;;0.50;0.50;;;21.90;99.90;;;;;;4995584;28;20804;-86
2021/08/08 10:26:41;;;;;;;0.40;0.40;;;21.60;99.90;;;;;;4994819;28;20479;-84
2021/08/08 10:29:10;;;;;;;0.60;0.53;;;21.10;99.90;;;;;;4994678;28;20416;-85
2021/08/08 10:31:37;;;;;;;0.43;0.43;;;20.90;99.90;;;;;;4994891;28;20555;-86
2021/08/08 10:34:05;;;;;;;0.50;0.30;;;20.80;99.90;;;;;;4995040;28;20436;-86
2021/08/08 10:36:33;;;;;;;0.40;0.40;;;20.70;99.90;;;;;;4995089;28;20519;-86
2021/08/08 10:39:11;;;;;;;0.60;0.50;;;20.70;99.90;;;;;;4994673;28;20413;-85
2021/08/08 10:41:39;;;;;;;0.57;0.40;;;20.70;99.90;;;;;;4994835;28;20463;-86
2021/08/08 10:44:09;;;;;;;0.53;0.50;;;20.70;99.90;;;;;;4997284;28;20807;-85
2021/08/08 10:46:46;;;;;;;1.10;0.50;;;20.80;99.90;;;;;;4995364;28;20475;-85
2021/08/08 10:49:13;;;;;;;1.17;0.40;;;21.20;99.90;;;;;;4995299;28;20448;-81
2021/08/08 10:51:40;;;;;;;1.07;0.40;;;21.70;99.90;;;;;;4994443;28;20474;-84
2021/08/08 10:54:08;;;;;;;0.73;0.30;;;22.30;99.90;;;;;;4994679;28;20432;-87
2021/08/08 10:56:45;;;;;;;0.40;0.40;;;22.80;99.90;;;;;;4994347;28;20225;-84
2021/08/08 10:59:15;;;;;;;0.40;0.40;;;23.30;99.90;;;;;;4994595;28;20200;-84
2021/08/08 11:01:42;;;;;;;0.30;0.30;;;23.70;99.90;;;;;;4994564;28;20225;-83
2021/08/08 11:04:09;;;;;;;0.40;0.40;;;23.80;99.90;;;;;;4998000;28;20247;-84
2021/08/08 11:06:36;;;;;;;0.50;0.50;;;23.80;99.90;;;;;;4998684;28;20251;-85
2021/08/08 11:09:04;;;;;;;0.50;0.50;;;23.80;99.90;;;;;;4998068;28;20196;-84
2021/08/08 11:11:33;;;;;;;0.40;0.30;;;23.40;99.90;;;;;;4998040;28;20229;-85
2021/08/08 11:14:09;;;;;;;0.40;0.30;;;23.20;99.90;;;;;;4998886;28;20193;-84
2021/08/08 11:16:38;;;;;;;0.50;0.40;;;22.70;99.90;;;;;;4998107;28;20184;-84
2021/08/08 11:19:05;;;;;;;0.50;0.40;;;22.30;99.90;;;;;;4998340;28;20662;-83
2021/08/08 11:21:31;;;;;;;0.40;0.40;;;22.10;99.90;;;;;;4997563;28;20712;-84
2021/08/08 11:24:00;;;;;;;0.40;0.40;;;21.90;99.90;;;;;;4997728;28;20448;-84
2021/08/08 11:26:27;;;;;;;0.57;0.30;;;21.90;99.90;;;;;;4997616;28;20216;-85
2021/08/08 11:28:58;;;;;;;0.40;0.40;;;21.80;99.90;;;;;;4997335;28;20421;-84
2021/08/08 11:31:27;;;;;;;0.50;0.40;;;22.00;99.90;;;;;;4997159;28;20763;-84
2021/08/08 11:34:00;;;;;;;0.40;0.30;;;22.20;99.90;;;;;;4997200;28;20223;-84
2021/08/08 11:36:28;;;;;;;0.60;0.60;;;22.30;99.90;;;;;;4997312;28;20203;-83
2021/08/08 11:38:56;;;;;;;0.40;0.37;;;22.50;99.90;;;;;;4997241;28;20661;-83
2021/08/08 11:41:24;;;;;;;0.73;0.50;;;22.60;99.90;;;;;;4997110;28;20487;-83
2021/08/08 11:44:05;;;;;;;0.60;0.37;;;22.80;99.90;;;;;;4997360;28;20205;-83
2021/08/08 11:46:32;;;;;;;0.60;0.40;;;22.90;99.90;;;;;;4997169;28;20213;-84
2021/08/08 11:49:01;;;;;;;0.40;0.40;;;23.00;99.90;;;;;;4997384;28;20552;-83
2021/08/08 11:51:28;;;;;;;0.40;0.30;;;23.10;99.90;;;;;;4996885;28;20229;-83
2021/08/08 11:53:56;;;;;;;1.00;0.40;;;23.20;99.90;;;;;;4996909;28;20201;-83
2021/08/08 11:56:28;;;;;;;0.60;0.50;;;23.00;99.60;;;;;;4996660;28;20237;-84
2021/08/08 11:58:57;;;;;;;0.40;0.30;;;22.90;99.90;;;;;;4996956;28;20205;-84
2021/08/08 12:01:26;;;;;;;0.30;0.30;;;22.60;99.80;;;;;;4996974;28;20236;-84
2021/08/08 12:03:53;;;;;;;0.40;0.40;;;22.30;99.90;;;;;;4996982;28;20287;-82
2021/08/08 12:06:23;;;;;;;0.40;0.40;;;22.10;99.90;;;;;;4996744;28;20486;-84
2021/08/08 12:08:51;;;;;;;0.30;0.30;;;21.90;99.90;;;;;;4996779;28;20444;-83
2021/08/08 12:11:20;;;;;;;0.40;0.40;;;21.80;99.90;;;;;;4996846;28;20456;-83
2021/08/08 12:13:59;;;;;;;0.50;0.40;;;21.70;99.90;;;;;;4996362;28;20451;-83
2021/08/08 12:16:32;;;;;;;0.30;0.30;;;21.60;99.90;;;;;;4996714;28;20795;-83
2021/08/08 12:18:59;;;;;;;0.50;0.50;;;21.50;99.90;;;;;;4996612;28;20779;-84
2021/08/08 12:21:27;;;;;;;0.40;0.40;;;21.40;99.90;;;;;;4996745;28;20976;-83
2021/08/08 12:24:04;;;;;;;0.40;0.40;;;21.40;99.90;;;;;;4996338;28;20440;-83
2021/08/08 12:26:30;;;;;;;0.40;0.40;;;21.40;99.90;;;;;;4996877;28;20875;-83
2021/08/08 12:29:05;;;;;;;0.40;0.30;;;21.40;99.90;;;;;;4996144;28;20443;-83
2021/08/08 12:31:36;;;;;;;0.40;0.40;;;21.30;99.90;;;;;;4996494;28;20822;-83
2021/08/08 12:34:03;;;;;;;0.40;0.40;;;21.30;99.90;;;;;;4996516;28;20451;-83
2021/08/08 12:36:38;;;;;;;0.37;0.33;;;21.20;99.90;;;;;;4996331;28;20440;-83
2021/08/08 12:39:06;;;;;;;0.43;0.37;;;21.20;99.90;;;;;;4996296;28;20880;-83
2021/08/08 12:41:37;;;;;;;0.47;0.43;;;21.10;99.90;;;;;;4996161;28;20474;-82
2021/08/08 12:44:04;;;;;;;0.47;0.47;;;21.00;99.90;;;;;;4996020;28;20437;-82
2021/08/08 12:46:33;;;;;;;0.30;0.30;;;20.90;99.90;;;;;;4995432;28;20479;-83
2021/08/08 12:49:02;;;;;;;0.50;0.40;;;20.90;99.90;;;;;;4995660;28;20466;-81
2021/08/08 12:51:29;;;;;;;0.40;0.40;;;20.70;99.90;;;;;;4995868;28;20475;-82